Terminal Aerodrome Forecast
Issued by NWS Duluth, MN

Home | Current Version | Previous Version | Text Only | Print | Product List | Glossary On
Versions: 1 2 3 4 5 6 7 8 9 10 11 12 13 14
000
FTUS43 KDLH 250500
TAFINL
TAF
KINL 250520Z 2506/2606 31006KT P6SM SCT150
     FM251500 33007KT P6SM SCT150
     FM251700 32008KT P6SM SCT025 BKN080
     FM252300 32006KT P6SM SCT100=

USA.gov is the U.S. government's official web portal to all federal, state and local government web resources and services.